createdAt,value
2019-03-29T00:01:04.146Z,45.52
2019-03-29T00:06:08.036Z,43.58
2019-03-29T00:11:12.992Z,47.25
2019-03-29T00:16:16.783Z,45.23
2019-03-29T00:21:20.485Z,49.90
2019-03-29T00:26:24.156Z,46.68
2019-03-29T00:31:28.866Z,51.08
2019-03-29T00:36:32.457Z,52.03
2019-03-29T00:41:36.191Z,55.08
2019-03-29T00:46:40.989Z,57.55
2019-03-29T00:51:46.272Z,57.03
2019-03-29T00:56:49.970Z,56.90
2019-03-29T01:01:54.222Z,55.23
2019-03-29T01:06:59.397Z,51.90
2019-03-29T01:12:03.134Z,54.00
2019-03-29T01:17:07.987Z,53.52
2019-03-29T01:22:13.117Z,50.43
2019-03-29T01:27:16.875Z,49.73
2019-03-29T01:32:20.778Z,49.58
2019-03-29T01:37:24.648Z,54.42
2019-03-29T01:42:28.350Z,52.35
2019-03-29T01:47:32.033Z,48.70
2019-03-29T01:52:35.686Z,48.35
2019-03-29T01:57:39.460Z,41.18
2019-03-29T02:02:43.227Z,42.93
2019-03-29T02:07:46.888Z,43.10
2019-03-29T02:12:50.563Z,40.05
2019-03-29T02:17:54.337Z,44.23
2019-03-29T02:23:00.998Z,43.65
2019-03-29T02:28:04.858Z,39.13
2019-03-29T02:33:10.843Z,44.03
2019-03-29T02:38:14.638Z,45.33
2019-03-29T02:43:18.284Z,36.28
2019-03-29T02:48:21.880Z,50.63
2019-03-29T02:53:31.940Z,45.60
2019-03-29T02:58:35.801Z,40.05
2019-03-29T03:03:39.549Z,43.45
2019-03-29T03:08:43.401Z,39.20
2019-03-29T03:13:47.137Z,37.60
2019-03-29T03:18:50.933Z,37.75
2019-03-29T03:23:54.698Z,41.25
2019-03-29T03:28:58.495Z,39.00
2019-03-29T03:34:02.317Z,42.75
2019-03-29T03:39:07.836Z,41.95
2019-03-29T03:44:11.676Z,39.10
2019-03-29T03:49:15.257Z,45.67
2019-03-29T03:54:18.999Z,36.90
2019-03-29T03:59:25.820Z,39.33
2019-03-29T04:04:30.021Z,41.30
2019-03-29T04:09:48.499Z,39.03
2019-03-29T04:14:40.011Z,34.05
2019-03-29T04:19:44.387Z,35.83
2019-03-29T04:24:48.039Z,36.40
2019-03-29T04:29:51.770Z,31.97
2019-03-29T04:34:55.448Z,32.95
2019-03-29T04:40:07.723Z,33.45
2019-03-29T04:45:07.966Z,32.13
2019-03-29T04:50:12.272Z,34.18
2019-03-29T04:55:16.020Z,31.07
2019-03-29T05:00:19.860Z,32.73
2019-03-29T05:05:23.786Z,30.00
2019-03-29T05:10:27.572Z,27.82
2019-03-29T05:15:31.452Z,30.55
2019-03-29T05:20:35.073Z,32.25
2019-03-29T05:25:42.031Z,32.53
2019-03-29T05:30:52.487Z,30.25
2019-03-29T05:35:56.326Z,30.50
2019-03-29T05:41:00.123Z,30.45
2019-03-29T05:46:03.845Z,33.00
2019-03-29T05:51:07.571Z,35.80
2019-03-29T05:56:11.424Z,32.93
2019-03-29T06:01:19.926Z,34.05
2019-03-29T06:06:24.393Z,31.17
2019-03-29T06:11:30.054Z,31.12
2019-03-29T06:16:39.101Z,29.77
2019-03-29T06:21:39.427Z,30.15
2019-03-29T06:26:44.066Z,34.18
2019-03-29T06:31:51.220Z,33.13
2019-03-29T06:36:55.449Z,35.20
2019-03-29T06:41:59.259Z,33.25
2019-03-29T06:47:08.574Z,31.93
2019-03-29T06:52:08.549Z,34.78
2019-03-29T06:57:12.385Z,35.65
2019-03-29T07:02:16.075Z,35.52
2019-03-29T07:07:20.964Z,31.60
2019-03-29T07:12:24.719Z,31.87
2019-03-29T07:17:28.542Z,36.88
2019-03-29T07:22:34.637Z,30.68
2019-03-29T07:27:44.670Z,37.25
2019-03-29T07:32:44.258Z,33.40
2019-03-29T07:37:47.977Z,33.98
2019-03-29T07:42:51.834Z,37.38
2019-03-29T07:47:55.703Z,38.28
2019-03-29T07:52:59.383Z,39.15
2019-03-29T07:58:03.158Z,39.45
2019-03-29T08:03:06.925Z,38.67
2019-03-29T08:08:23.261Z,38.38
2019-03-29T08:13:16.555Z,42.50
2019-03-29T08:18:20.513Z,40.52
2019-03-29T08:23:24.132Z,40.23
2019-03-29T08:28:27.901Z,40.90
2019-03-29T08:33:31.552Z,30.20
2019-03-29T08:38:35.303Z,26.73
2019-03-29T08:43:38.987Z,24.47
2019-03-29T08:48:42.825Z,26.77
2019-03-29T08:53:46.890Z,23.52
2019-03-29T08:58:50.647Z,25.37
2019-03-29T09:04:05.063Z,24.63
2019-03-29T09:09:03.277Z,29.27
2019-03-29T09:14:06.974Z,31.50
2019-03-29T09:19:10.699Z,28.75
2019-03-29T09:24:21.648Z,52.80
2019-03-29T09:29:19.933Z,22.13
2019-03-29T09:34:23.924Z,24.92
2019-03-29T09:39:33.545Z,19.85
2019-03-29T09:44:37.246Z,18.35
2019-03-29T09:49:40.971Z,17.55
2019-03-29T09:54:44.888Z,15.80
2019-03-29T09:59:48.606Z,16.87
2019-03-29T10:04:52.356Z,16.77
2019-03-29T10:09:56.160Z,19.87
2019-03-29T10:15:12.141Z,25.43
2019-03-29T10:20:15.966Z,37.80
2019-03-29T10:25:33.913Z,22.20
2019-03-29T10:31:10.034Z,21.73
2019-03-29T10:36:13.842Z,13.62
2019-03-29T10:41:22.577Z,16.93
2019-03-29T10:46:31.595Z,15.58
2019-03-29T10:51:35.349Z,15.32
2019-03-29T10:56:39.157Z,21.33
2019-03-29T11:01:43.828Z,20.02
2019-03-29T11:06:47.599Z,21.50
2019-03-29T11:11:51.519Z,20.88
2019-03-29T11:16:55.285Z,31.33
2019-03-29T11:21:59.173Z,21.95
2019-03-29T11:27:02.946Z,19.32
2019-03-29T11:32:06.808Z,17.48
2019-03-29T11:37:10.713Z,20.52
2019-03-29T11:42:14.497Z,44.45
2019-03-29T11:47:18.355Z,20.48
2019-03-29T11:52:22.030Z,20.37
2019-03-29T11:57:25.862Z,20.85
2019-03-29T12:02:31.476Z,18.35
2019-03-29T12:07:35.182Z,21.93
2019-03-29T12:12:39.013Z,23.87
2019-03-29T12:17:42.735Z,15.98
2019-03-29T12:22:46.490Z,21.52
2019-03-29T12:27:50.325Z,24.52
2019-03-29T12:32:54.019Z,24.12
2019-03-29T12:37:57.824Z,22.48
2019-03-29T12:43:01.699Z,24.85
2019-03-29T12:48:05.533Z,20.10
2019-03-29T12:53:09.186Z,24.82
2019-03-29T12:58:13.016Z,22.35
2019-03-29T13:03:16.944Z,24.25
2019-03-29T13:08:22.232Z,24.15
2019-03-29T13:13:26.947Z,21.95
2019-03-29T13:18:34.761Z,20.45
2019-03-29T13:23:38.472Z,23.35
2019-03-29T13:28:42.241Z,21.30
2019-03-29T13:33:46.140Z,22.05
2019-03-29T13:38:50.006Z,20.27
2019-03-29T13:43:53.879Z,19.65
2019-03-29T13:48:57.811Z,18.55
2019-03-29T13:54:03.261Z,19.12
2019-03-29T13:59:07.117Z,14.47
2019-03-29T14:04:11.018Z,23.30
2019-03-29T14:09:14.732Z,19.65
2019-03-29T14:14:18.483Z,18.73
2019-03-29T14:19:22.265Z,17.98
2019-03-29T14:24:26.700Z,19.77
2019-03-29T14:29:30.415Z,19.87
2019-03-29T14:34:35.653Z,15.85
2019-03-29T14:39:39.518Z,18.55
2019-03-29T14:44:52.238Z,18.90
2019-03-29T14:49:48.728Z,17.07
2019-03-29T14:54:53.928Z,14.07
2019-03-29T14:59:57.938Z,17.48
2019-03-29T15:05:01.642Z,17.52
2019-03-29T15:10:06.594Z,15.58
2019-03-29T15:15:10.782Z,14.98
2019-03-29T15:20:14.974Z,13.35
2019-03-29T15:25:18.925Z,12.28
2019-03-29T15:30:22.691Z,13.93
2019-03-29T15:35:26.349Z,14.47
2019-03-29T15:40:30.256Z,14.85
2019-03-29T15:45:35.357Z,13.35
2019-03-29T15:50:39.072Z,13.95
2019-03-29T15:55:45.309Z,12.82
2019-03-29T16:00:49.286Z,14.55
2019-03-29T16:05:53.033Z,11.35
2019-03-29T16:10:59.451Z,13.43
2019-03-29T16:16:04.713Z,12.95
2019-03-29T16:21:08.502Z,13.15
2019-03-29T16:26:13.307Z,13.45
2019-03-29T16:31:19.661Z,31.10
2019-03-29T16:36:24.651Z,19.45
2019-03-29T16:41:28.653Z,13.90
2019-03-29T16:46:32.410Z,13.10
2019-03-29T16:51:36.186Z,13.50
2019-03-29T16:56:39.942Z,13.25
2019-03-29T17:01:43.841Z,15.18
2019-03-29T17:06:49.406Z,13.88
2019-03-29T17:11:53.173Z,15.20
2019-03-29T17:16:56.829Z,16.32
2019-03-29T17:22:01.323Z,17.73
2019-03-29T17:27:15.601Z,19.67
2019-03-29T17:32:10.863Z,29.65
2019-03-29T17:37:14.603Z,35.63
2019-03-29T17:42:19.877Z,31.95
2019-03-29T17:47:23.610Z,30.92
2019-03-29T17:52:27.942Z,28.02
2019-03-29T17:57:31.771Z,36.60
2019-03-29T18:02:35.540Z,37.50
2019-03-29T18:07:39.432Z,36.73
2019-03-29T18:12:45.292Z,27.93
2019-03-29T18:17:49.165Z,37.63
2019-03-29T18:22:52.980Z,54.95
2019-03-29T18:27:56.796Z,60.28
2019-03-29T18:33:00.659Z,56.15
2019-03-29T18:38:04.671Z,52.38
2019-03-29T18:43:08.394Z,56.48
2019-03-29T18:48:13.908Z,55.30
2019-03-29T18:53:17.588Z,62.03
2019-03-29T18:58:25.709Z,73.00
2019-03-29T19:03:29.476Z,87.42
2019-03-29T19:08:33.217Z,83.42
2019-03-29T19:13:37.349Z,73.97
2019-03-29T19:18:41.088Z,71.75
2019-03-29T19:23:47.658Z,70.35
2019-03-29T19:28:52.824Z,74.27
2019-03-29T19:33:56.682Z,77.08
2019-03-29T19:39:01.068Z,73.07
2019-03-29T19:44:04.922Z,61.23
2019-03-29T19:49:09.707Z,59.53
2019-03-29T19:54:13.595Z,59.42
2019-03-29T19:59:22.831Z,57.35
2019-03-29T20:04:26.597Z,66.05
2019-03-29T20:09:32.346Z,58.25
2019-03-29T20:14:37.828Z,68.15
2019-03-29T20:19:41.696Z,76.40
2019-03-29T20:24:46.464Z,74.53
2019-03-29T20:29:52.370Z,60.28
2019-03-29T20:34:56.198Z,67.97
2019-03-29T20:40:02.990Z,66.60
2019-03-29T20:45:08.529Z,73.05
2019-03-29T20:50:14.311Z,67.78
2019-03-29T20:55:19.335Z,68.05
2019-03-29T21:00:23.191Z,68.15
2019-03-29T21:05:26.933Z,73.22
2019-03-29T21:10:30.599Z,68.57
2019-03-29T21:15:34.298Z,69.42
2019-03-29T21:20:38.054Z,74.03
2019-03-29T21:25:41.797Z,68.47
2019-03-29T21:30:45.693Z,73.62
2019-03-29T21:35:50.986Z,80.35
2019-03-29T21:40:54.695Z,81.78
2019-03-29T21:46:01.743Z,79.15
2019-03-29T21:51:05.448Z,74.07
2019-03-29T21:56:09.275Z,81.87
2019-03-29T22:01:12.931Z,78.45
2019-03-29T22:06:16.764Z,75.72
2019-03-29T22:11:20.522Z,70.40
2019-03-29T22:16:24.240Z,72.20
2019-03-29T22:21:28.050Z,69.25
2019-03-29T22:26:31.847Z,84.30
2019-03-29T22:31:35.578Z,84.42
2019-03-29T22:36:39.299Z,70.32
2019-03-29T22:41:43.170Z,85.72
2019-03-29T22:46:47.201Z,75.60
2019-03-29T22:51:51.002Z,73.52
2019-03-29T22:56:54.765Z,68.50
2019-03-29T23:01:58.580Z,78.33
2019-03-29T23:07:02.384Z,70.80
2019-03-29T23:12:06.096Z,61.50
2019-03-29T23:17:09.866Z,71.45
2019-03-29T23:22:13.487Z,77.82
2019-03-29T23:27:17.069Z,73.55
2019-03-29T23:32:20.677Z,68.78
2019-03-29T23:37:24.404Z,73.20
2019-03-29T23:42:28.114Z,73.22
2019-03-29T23:47:33.301Z,63.75
2019-03-29T23:52:36.977Z,65.62
2019-03-29T23:57:40.625Z,70.67
